Time;durP1;ratioP1;P1;durP2;ratioP2;P2;SDS_P1;SDS_P2;PMS_P1;PMS_P2;Temp;Humidity;BMP_temperature;BMP_pressure;BME280_temperature;BME280_humidity;BME280_pressure;Samples;Min_cycle;Max_cycle;Signal;HPM_P1;HPM_P2
2021/12/27 00:01:00;;;;;;;16.42;9.27;;;-0.10;99.90;;;;;;5009782;28;20033;-82
2021/12/27 00:03:26;;;;;;;18.48;9.65;;;-0.90;99.90;;;;;;5017065;28;20428;-83
2021/12/27 00:05:52;;;;;;;19.75;9.95;;;-0.90;99.90;;;;;;4996452;28;20117;-83
2021/12/27 00:08:18;;;;;;;17.25;9.38;;;-0.90;99.90;;;;;;5006954;28;20517;-83
2021/12/27 00:10:44;;;;;;;18.55;10.02;;;-1.00;99.90;;;;;;5015736;28;20056;-83
2021/12/27 00:13:10;;;;;;;20.27;9.50;;;-0.90;99.90;;;;;;5011847;28;20111;-82
2021/12/27 00:15:36;;;;;;;16.92;9.57;;;-0.30;99.90;;;;;;5012448;28;20081;-82
2021/12/27 00:18:03;;;;;;;19.02;9.57;;;-0.80;99.90;;;;;;4994757;28;20056;-83
2021/12/27 00:20:28;;;;;;;17.10;9.55;;;-1.00;99.90;;;;;;5008936;28;20030;-82
2021/12/27 00:22:54;;;;;;;17.10;9.57;;;-1.00;99.90;;;;;;4985141;28;20037;-83
2021/12/27 00:25:20;;;;;;;17.42;9.65;;;-1.00;99.90;;;;;;4995945;28;20120;-82
2021/12/27 00:27:47;;;;;;;16.65;8.82;;;-1.10;99.90;;;;;;5011423;28;20378;-83
2021/12/27 00:30:15;;;;;;;17.63;8.98;;;-1.10;99.90;;;;;;4989875;28;20056;-82
2021/12/27 00:32:43;;;;;;;16.50;8.93;;;-1.10;99.90;;;;;;5005622;28;20041;-82
2021/12/27 00:35:11;;;;;;;15.35;8.77;;;-0.50;99.90;;;;;;4991625;28;20045;-83
2021/12/27 00:37:36;;;;;;;17.80;9.60;;;0.30;99.90;;;;;;5028034;28;20120;-82
2021/12/27 00:40:04;;;;;;;16.85;9.05;;;-1.20;99.90;;;;;;5007610;28;20108;-83
2021/12/27 00:42:29;;;;;;;18.25;9.45;;;-1.20;99.90;;;;;;4995293;28;20106;-83
2021/12/27 00:44:55;;;;;;;16.05;8.82;;;0.30;99.90;;;;;;4992668;28;20037;-83
2021/12/27 00:47:21;;;;;;;17.88;9.38;;;0.60;99.90;;;;;;5010794;28;20049;-84
2021/12/27 00:49:47;;;;;;;17.23;9.48;;;-0.30;99.90;;;;;;5010585;28;20586;-83
2021/12/27 00:52:13;;;;;;;17.90;9.38;;;-1.40;99.90;;;;;;4991223;28;20049;-83
2021/12/27 00:54:38;;;;;;;16.48;8.95;;;-0.80;99.90;;;;;;4968413;28;20462;-83
2021/12/27 00:57:04;;;;;;;18.10;9.60;;;0.00;99.90;;;;;;5027938;28;20072;-83
2021/12/27 00:59:30;;;;;;;17.33;9.43;;;-1.60;99.90;;;;;;4994081;28;20060;-83
2021/12/27 01:01:56;;;;;;;16.63;8.57;;;-1.00;99.90;;;;;;4994604;28;20043;-83
2021/12/27 01:04:22;;;;;;;17.85;10.13;;;-1.60;99.90;;;;;;4995282;28;20061;-83
2021/12/27 01:06:48;;;;;;;18.25;9.93;;;-1.20;99.90;;;;;;5011913;28;20095;-84
2021/12/27 01:09:23;;;;;;;18.33;9.10;;;-0.80;99.90;;;;;;4995146;28;20503;-83
2021/12/27 01:14:39;;;;;;;18.40;9.25;;;-1.00;99.90;;;;;;5012607;28;20088;-83
2021/12/27 01:17:05;;;;;;;18.67;9.93;;;-1.10;99.90;;;;;;5017871;28;20061;-83
2021/12/27 01:19:31;;;;;;;17.83;9.50;;;-1.60;99.90;;;;;;5014235;28;20040;-84
2021/12/27 01:21:57;;;;;;;18.70;10.48;;;-0.20;99.90;;;;;;5005352;28;20038;-83
2021/12/27 01:24:22;;;;;;;17.02;9.45;;;-1.50;99.90;;;;;;4996305;28;20072;-84
2021/12/27 01:26:48;;;;;;;18.45;10.05;;;-1.40;99.90;;;;;;5015251;28;20040;-83
2021/12/27 01:29:14;;;;;;;18.50;9.98;;;-1.50;99.90;;;;;;5013580;28;21857;-82
2021/12/27 01:31:39;;;;;;;18.75;10.13;;;-0.70;99.90;;;;;;5010170;28;20083;-83
2021/12/27 01:34:05;;;;;;;19.48;10.35;;;-1.50;99.90;;;;;;4996277;28;20432;-82
2021/12/27 01:36:32;;;;;;;19.42;9.93;;;-1.40;99.90;;;;;;5030948;28;20041;-82
2021/12/27 01:39:03;;;;;;;19.05;9.70;;;-1.40;99.90;;;;;;5037155;28;20040;-83
2021/12/27 01:41:28;;;;;;;16.90;9.85;;;0.40;99.90;;;;;;5012227;28;20115;-82
2021/12/27 01:43:54;;;;;;;18.70;9.85;;;-1.40;99.90;;;;;;5035003;28;20667;-83
2021/12/27 01:46:23;;;;;;;18.67;9.82;;;-1.40;99.90;;;;;;5018411;28;20037;-83
2021/12/27 01:48:56;;;;;;;20.15;10.57;;;-1.40;99.90;;;;;;5002539;28;20075;-83
2021/12/27 01:51:28;;;;;;;18.23;9.75;;;-1.40;99.90;;;;;;5017736;28;20098;-82
2021/12/27 01:53:54;;;;;;;17.67;10.00;;;-1.40;99.90;;;;;;5034408;28;20044;-83
2021/12/27 01:56:22;;;;;;;17.90;10.02;;;-1.30;99.90;;;;;;5017686;28;20044;-83
2021/12/27 01:58:49;;;;;;;18.88;10.60;;;-0.60;99.90;;;;;;5028102;28;20040;-83
2021/12/27 02:01:15;;;;;;;18.13;10.20;;;-1.80;99.90;;;;;;5024109;28;20109;-83
2021/12/27 02:03:42;;;;;;;19.45;10.77;;;-0.90;99.90;;;;;;5001393;28;20037;-83
2021/12/27 02:06:10;;;;;;;18.98;10.98;;;-1.30;99.90;;;;;;5017915;28;20036;-83
2021/12/27 02:08:38;;;;;;;18.42;10.20;;;0.40;99.90;;;;;;5017508;28;20048;-83
2021/12/27 02:11:05;;;;;;;18.13;9.82;;;-1.30;99.90;;;;;;5017362;28;20120;-83
2021/12/27 02:13:31;;;;;;;20.02;10.70;;;-0.70;99.90;;;;;;5041822;28;20064;-84
2021/12/27 02:15:57;;;;;;;21.85;11.35;;;-1.20;99.90;;;;;;5015384;28;20107;-83
2021/12/27 02:18:23;;;;;;;18.35;10.18;;;-1.20;99.90;;;;;;5006406;28;20073;-83
2021/12/27 02:20:48;;;;;;;20.52;10.32;;;-1.30;99.90;;;;;;5017432;28;20049;-82
2021/12/27 02:23:17;;;;;;;18.42;10.45;;;-1.20;99.90;;;;;;5016496;28;20106;-83
2021/12/27 02:25:48;;;;;;;17.88;10.50;;;-1.20;99.90;;;;;;5018008;28;20076;-83
2021/12/27 02:28:15;;;;;;;19.23;11.07;;;-1.20;99.90;;;;;;5017764;28;20045;-83
2021/12/27 02:30:43;;;;;;;19.08;10.73;;;-1.20;99.90;;;;;;5023752;28;20084;-83
2021/12/27 02:33:10;;;;;;;18.33;10.60;;;-1.20;99.90;;;;;;5034818;28;20120;-83
2021/12/27 02:35:45;;;;;;;18.55;11.13;;;-0.90;99.90;;;;;;4987529;28;20123;-83
2021/12/27 02:38:15;;;;;;;19.60;11.13;;;-1.20;99.90;;;;;;5033165;28;20541;-83
2021/12/27 02:40:42;;;;;;;19.33;10.55;;;-1.20;99.90;;;;;;5034049;28;20029;-83
2021/12/27 02:43:14;;;;;;;17.42;10.13;;;-1.20;99.90;;;;;;5033866;28;20033;-83
2021/12/27 02:45:46;;;;;;;19.48;10.70;;;-0.90;99.90;;;;;;5017285;28;20043;-83
2021/12/27 02:48:14;;;;;;;18.90;10.93;;;-1.10;99.90;;;;;;5017140;28;20045;-83
2021/12/27 02:50:41;;;;;;;18.55;10.88;;;-1.10;99.90;;;;;;5017033;28;20041;-83
2021/12/27 02:53:08;;;;;;;19.40;10.93;;;-0.30;99.90;;;;;;5015940;28;20059;-83
2021/12/27 02:55:35;;;;;;;20.45;11.27;;;-0.70;99.90;;;;;;5017607;28;20041;-83
2021/12/27 02:58:01;;;;;;;20.85;11.80;;;-1.00;99.90;;;;;;5016428;28;20037;-83
2021/12/27 03:00:30;;;;;;;19.63;10.75;;;0.70;99.90;;;;;;4999559;28;20051;-83
2021/12/27 03:02:57;;;;;;;20.77;10.80;;;-1.10;99.90;;;;;;5011781;28;20536;-83
2021/12/27 03:05:25;;;;;;;19.92;11.43;;;-1.10;99.90;;;;;;5016329;28;20099;-83
2021/12/27 03:07:52;;;;;;;19.35;11.00;;;-1.00;99.90;;;;;;5033442;28;20087;-83
2021/12/27 03:10:22;;;;;;;20.52;11.32;;;-1.00;99.90;;;;;;5033469;28;20605;-83
2021/12/27 03:12:49;;;;;;;19.17;10.98;;;-1.10;99.90;;;;;;5013467;28;20128;-83
2021/12/27 03:15:17;;;;;;;21.40;11.43;;;-0.60;99.90;;;;;;5027484;28;20061;-82
2021/12/27 03:17:45;;;;;;;19.13;11.10;;;0.10;99.90;;;;;;4996828;28;20116;-83
2021/12/27 03:20:13;;;;;;;21.75;11.32;;;-1.00;99.90;;;;;;5013389;28;20030;-83
2021/12/27 03:22:41;;;;;;;20.70;11.60;;;-1.00;99.90;;;;;;4996166;28;20477;-83
2021/12/27 03:25:09;;;;;;;20.83;11.65;;;-1.00;99.90;;;;;;5028065;28;20490;-83
2021/12/27 03:27:35;;;;;;;19.98;11.43;;;-0.90;99.90;;;;;;5013097;28;20056;-83
2021/12/27 03:30:01;;;;;;;22.13;11.93;;;-0.10;99.90;;;;;;5010446;28;20042;-83
2021/12/27 03:32:27;;;;;;;19.30;11.35;;;0.70;99.90;;;;;;5013066;28;20084;-83
2021/12/27 03:35:03;;;;;;;18.40;10.93;;;0.10;99.90;;;;;;5011496;28;20755;-83
2021/12/27 03:37:30;;;;;;;19.90;11.20;;;0.70;99.90;;;;;;5001779;28;20149;-83
2021/12/27 03:39:56;;;;;;;20.48;11.77;;;-0.30;99.90;;;;;;5024464;28;20086;-83
2021/12/27 03:42:22;;;;;;;20.13;11.25;;;1.20;99.90;;;;;;5029027;28;20037;-83
2021/12/27 03:44:48;;;;;;;22.15;11.70;;;0.10;99.90;;;;;;5012789;28;20445;-83
2021/12/27 03:47:14;;;;;;;20.65;11.20;;;-0.40;99.90;;;;;;4996291;28;20563;-83
2021/12/27 03:49:39;;;;;;;20.42;11.45;;;-0.80;99.90;;;;;;5028665;28;20044;-83
2021/12/27 03:52:05;;;;;;;22.85;11.90;;;-0.80;99.90;;;;;;5011917;28;20541;-83
2021/12/27 03:54:31;;;;;;;20.27;11.57;;;-0.80;99.90;;;;;;5009249;28;20071;-84
2021/12/27 03:56:57;;;;;;;22.55;12.50;;;-0.80;99.90;;;;;;4995862;28;20061;-83
2021/12/27 04:00:16;;;;;;;21.00;11.75;;;-0.80;99.90;;;;;;5012178;28;20041;-83
2021/12/27 04:02:09;;;;;;;21.30;11.02;;;0.40;99.90;;;;;;5017294;28;20391;-83
2021/12/27 04:04:35;;;;;;;20.52;11.38;;;-0.80;99.90;;;;;;5027939;28;20045;-83
2021/12/27 04:07:02;;;;;;;19.48;11.57;;;-0.70;99.90;;;;;;5012769;28;20048;-83
2021/12/27 04:09:28;;;;;;;21.83;12.00;;;-0.70;99.90;;;;;;5012430;28;20422;-83
2021/12/27 04:11:54;;;;;;;22.52;11.95;;;-0.90;99.90;;;;;;5023478;28;20046;-83
2021/12/27 04:14:20;;;;;;;21.83;12.38;;;-0.70;99.90;;;;;;5023541;28;20070;-83
2021/12/27 04:16:46;;;;;;;19.98;11.43;;;-0.70;99.90;;;;;;5011678;28;20049;-83
2021/12/27 04:19:13;;;;;;;21.50;12.30;;;1.20;99.90;;;;;;5009693;28;20088;-83
2021/12/27 04:21:39;;;;;;;23.95;13.20;;;0.10;99.90;;;;;;5010444;28;20168;-83
2021/12/27 04:24:05;;;;;;;20.88;11.98;;;-0.70;99.90;;;;;;5000110;28;20135;-84
2021/12/27 04:26:31;;;;;;;21.55;12.02;;;-0.60;99.90;;;;;;5009786;28;20029;-83
2021/12/27 04:28:57;;;;;;;21.10;12.02;;;-0.60;99.90;;;;;;4996220;28;20042;-83
2021/12/27 04:31:23;;;;;;;22.30;12.50;;;-0.60;99.90;;;;;;4996117;28;20060;-83
2021/12/27 04:33:49;;;;;;;22.10;11.57;;;-0.60;99.90;;;;;;4996051;28;20095;-83
2021/12/27 04:36:15;;;;;;;22.98;12.18;;;-0.60;99.90;;;;;;5027917;28;20052;-84
2021/12/27 04:38:44;;;;;;;21.83;12.05;;;-0.60;99.90;;;;;;4991742;28;20033;-83
2021/12/27 04:41:12;;;;;;;20.63;12.05;;;-0.60;99.90;;;;;;5007427;28;20498;-83
2021/12/27 04:43:38;;;;;;;20.45;11.77;;;-0.60;99.90;;;;;;5028523;28;20037;-83
2021/12/27 04:46:05;;;;;;;21.35;12.50;;;-0.50;99.90;;;;;;4981011;28;20038;-83
2021/12/27 04:48:30;;;;;;;22.17;12.95;;;-0.60;99.90;;;;;;5010648;28;20059;-83
2021/12/27 04:50:57;;;;;;;22.02;13.07;;;1.10;99.90;;;;;;5009369;28;20501;-83
2021/12/27 04:53:23;;;;;;;20.08;11.38;;;-0.50;99.90;;;;;;5015921;28;20076;-83
2021/12/27 04:55:49;;;;;;;20.80;12.43;;;-0.50;99.90;;;;;;5012064;28;20037;-82
2021/12/27 04:58:16;;;;;;;21.48;12.55;;;-0.50;99.90;;;;;;5027752;28;20045;-83
2021/12/27 05:00:43;;;;;;;23.27;12.68;;;-0.20;99.90;;;;;;5012436;28;20060;-83
2021/12/27 05:03:09;;;;;;;22.95;12.45;;;-0.50;99.90;;;;;;5011927;28;20041;-83
2021/12/27 05:05:36;;;;;;;20.50;12.45;;;-0.40;99.90;;;;;;5028264;28;20037;-83
2021/12/27 05:08:03;;;;;;;21.45;12.60;;;-0.40;99.90;;;;;;5027763;28;20038;-88
2021/12/27 05:10:30;;;;;;;21.98;12.77;;;-0.40;99.90;;;;;;5012160;28;20737;-88
2021/12/27 05:12:56;;;;;;;22.38;12.68;;;-0.30;99.90;;;;;;5002324;28;20069;-87
2021/12/27 05:15:22;;;;;;;21.95;12.70;;;-0.40;99.90;;;;;;5030955;28;20045;-88
2021/12/27 05:17:48;;;;;;;22.40;12.75;;;0.30;99.90;;;;;;5015292;28;20037;-87
2021/12/27 05:20:14;;;;;;;20.75;12.38;;;-0.40;99.90;;;;;;4999881;28;20051;-87
2021/12/27 05:22:40;;;;;;;23.88;13.15;;;-0.30;99.90;;;;;;5011248;28;20121;-87
2021/12/27 05:25:08;;;;;;;23.70;13.10;;;-0.30;99.90;;;;;;5016241;28;20167;-88
2021/12/27 05:27:34;;;;;;;21.95;13.07;;;-0.30;99.90;;;;;;5015811;28;20049;-88
2021/12/27 05:29:59;;;;;;;21.85;12.65;;;-0.40;99.90;;;;;;5000227;28;20112;-87
2021/12/27 05:32:25;;;;;;;21.17;12.98;;;-0.30;99.90;;;;;;5016390;28;20191;-88
2021/12/27 05:34:51;;;;;;;21.30;13.38;;;-0.20;99.90;;;;;;5017804;28;20041;-88
2021/12/27 05:37:16;;;;;;;24.17;13.05;;;1.20;99.90;;;;;;4998878;28;20774;-86
2021/12/27 05:39:42;;;;;;;23.13;13.23;;;1.40;99.90;;;;;;4998676;28;20041;-87
2021/12/27 05:42:08;;;;;;;24.23;13.65;;;-0.10;99.90;;;;;;5013311;28;20124;-88
2021/12/27 05:44:35;;;;;;;23.35;13.55;;;-0.30;99.90;;;;;;4999399;28;20041;-87
2021/12/27 05:47:00;;;;;;;22.25;12.48;;;1.50;99.90;;;;;;5015445;28;20038;-87
2021/12/27 05:49:26;;;;;;;22.42;13.38;;;0.50;99.90;;;;;;4990450;28;20067;-87
2021/12/27 05:51:52;;;;;;;22.40;13.82;;;-0.20;99.90;;;;;;5032317;28;20045;-87
2021/12/27 05:54:20;;;;;;;23.92;13.23;;;-0.20;99.90;;;;;;5032142;28;20053;-87
2021/12/27 05:56:47;;;;;;;24.25;13.52;;;1.00;99.90;;;;;;5014748;28;20048;-87
2021/12/27 05:59:13;;;;;;;24.70;14.23;;;-0.50;99.90;;;;;;5011680;28;20038;-87
2021/12/27 06:01:40;;;;;;;22.80;13.27;;;-0.20;99.90;;;;;;5005824;28;20037;-87
2021/12/27 06:04:06;;;;;;;25.17;14.23;;;-0.20;99.90;;;;;;5014918;28;20037;-87
2021/12/27 06:06:32;;;;;;;25.67;14.32;;;0.60;99.90;;;;;;5006167;28;20394;-87
2021/12/27 06:08:58;;;;;;;23.70;13.57;;;0.00;99.90;;;;;;4997619;28;20030;-87
2021/12/27 06:11:23;;;;;;;26.85;15.57;;;-0.20;99.90;;;;;;5031877;28;20038;-87
2021/12/27 06:13:49;;;;;;;23.35;13.48;;;-0.20;99.90;;;;;;5014784;28;20139;-88
2021/12/27 06:16:15;;;;;;;22.88;13.68;;;-0.20;99.90;;;;;;5014230;28;20494;-87
2021/12/27 06:18:41;;;;;;;24.88;14.70;;;-0.20;99.90;;;;;;5013478;28;20037;-86
2021/12/27 06:21:07;;;;;;;24.83;14.05;;;-0.20;99.90;;;;;;5014247;28;20046;-86
2021/12/27 06:23:33;;;;;;;25.50;14.90;;;-0.20;99.90;;;;;;5014152;28;20520;-88
2021/12/27 06:25:59;;;;;;;26.60;14.98;;;1.00;99.90;;;;;;4996330;28;20074;-88
2021/12/27 06:28:27;;;;;;;26.88;15.27;;;-0.20;99.90;;;;;;5011854;28;20110;-87
2021/12/27 06:30:53;;;;;;;26.92;14.63;;;-0.20;99.90;;;;;;4993994;28;20045;-87
2021/12/27 06:33:19;;;;;;;27.15;14.93;;;-0.20;99.90;;;;;;5032634;28;20589;-87
2021/12/27 06:35:45;;;;;;;26.33;15.13;;;-0.10;99.90;;;;;;5011850;28;20052;-87
2021/12/27 06:38:11;;;;;;;25.35;14.55;;;-0.20;99.90;;;;;;4996643;28;20033;-87
2021/12/27 06:40:36;;;;;;;25.63;14.77;;;-0.10;99.90;;;;;;5011199;28;20038;-88
2021/12/27 06:43:02;;;;;;;27.80;14.57;;;-0.10;99.90;;;;;;4981334;28;20033;-88
2021/12/27 06:45:28;;;;;;;27.90;15.43;;;-0.10;99.90;;;;;;5013734;28;20112;-88
2021/12/27 06:47:54;;;;;;;29.33;16.60;;;-0.10;99.90;;;;;;4996813;28;20562;-88
2021/12/27 06:50:21;;;;;;;25.20;14.57;;;1.10;99.90;;;;;;5012495;28;20038;-88
2021/12/27 06:52:47;;;;;;;29.33;15.32;;;-0.10;99.90;;;;;;5014435;28;20045;-87
2021/12/27 06:55:13;;;;;;;28.70;15.15;;;1.20;99.90;;;;;;4994687;28;20475;-87
2021/12/27 06:57:40;;;;;;;28.75;15.88;;;1.90;99.90;;;;;;5030187;28;20115;-87
2021/12/27 07:00:10;;;;;;;26.23;15.73;;;-0.10;99.90;;;;;;5013188;28;20029;-87
2021/12/27 07:02:36;;;;;;;28.45;15.73;;;-0.10;99.90;;;;;;5012686;28;20076;-87
2021/12/27 07:05:01;;;;;;;25.92;15.40;;;-0.10;99.90;;;;;;5013973;28;20041;-87
2021/12/27 07:07:27;;;;;;;29.73;16.63;;;-0.10;99.90;;;;;;5010367;28;20045;-87
2021/12/27 07:09:53;;;;;;;26.58;14.93;;;-0.10;99.90;;;;;;5038751;28;20857;-88
2021/12/27 07:12:19;;;;;;;27.88;16.02;;;-0.10;99.90;;;;;;5008765;28;20096;-87
2021/12/27 07:14:47;;;;;;;27.20;15.45;;;-0.10;99.90;;;;;;4999830;28;1127040;-88
2021/12/27 07:17:12;;;;;;;28.65;15.57;;;-0.10;99.90;;;;;;4998568;28;20077;-87
2021/12/27 07:19:38;;;;;;;30.73;15.05;;;-0.10;99.90;;;;;;5014781;28;20122;-87
2021/12/27 07:22:04;;;;;;;30.17;16.42;;;-0.10;99.90;;;;;;4970186;28;20402;-87
2021/12/27 07:24:30;;;;;;;27.58;15.80;;;-0.10;99.90;;;;;;5026020;28;20045;-87
2021/12/27 07:26:56;;;;;;;24.75;14.82;;;-0.10;99.90;;;;;;5010134;28;20059;-88
2021/12/27 07:29:21;;;;;;;30.08;17.00;;;-0.10;99.90;;;;;;5013639;28;20116;-87
2021/12/27 07:31:48;;;;;;;25.55;14.93;;;-0.10;99.90;;;;;;5012442;28;20056;-87
2021/12/27 07:34:17;;;;;;;30.15;16.00;;;-0.10;99.90;;;;;;5011745;28;20111;-88
2021/12/27 07:36:44;;;;;;;32.13;16.08;;;-0.10;99.90;;;;;;5028840;28;20125;-88
2021/12/27 07:39:09;;;;;;;28.48;15.82;;;-0.10;99.90;;;;;;5011469;28;20107;-87
2021/12/27 07:41:35;;;;;;;30.08;17.15;;;0.00;99.90;;;;;;5010376;28;20450;-87
2021/12/27 07:44:01;;;;;;;30.17;16.25;;;0.00;99.90;;;;;;5007151;28;20030;-87
2021/12/27 07:46:26;;;;;;;30.10;16.70;;;1.30;99.90;;;;;;4991082;28;20544;-87
2021/12/27 07:48:52;;;;;;;31.50;16.08;;;0.00;99.90;;;;;;5011154;28;20040;-87
2021/12/27 07:51:18;;;;;;;35.78;17.65;;;0.00;99.90;;;;;;5012959;28;20121;-88
2021/12/27 07:53:44;;;;;;;30.77;16.45;;;1.00;99.90;;;;;;4996661;28;20600;-87
2021/12/27 07:56:10;;;;;;;30.45;16.27;;;0.00;99.90;;;;;;5013800;28;20295;-87
2021/12/27 07:58:36;;;;;;;33.30;16.70;;;0.00;99.90;;;;;;5012253;28;20124;-87
2021/12/27 08:01:02;;;;;;;30.73;17.05;;;0.00;99.90;;;;;;5012068;28;20041;-88
2021/12/27 08:03:28;;;;;;;33.47;16.92;;;0.00;99.90;;;;;;5006007;28;20034;-87
2021/12/27 08:05:54;;;;;;;31.48;17.15;;;0.40;99.90;;;;;;5020409;28;20060;-88
2021/12/27 08:08:20;;;;;;;31.92;17.05;;;0.10;99.90;;;;;;5010092;28;20643;-88
2021/12/27 08:10:46;;;;;;;30.75;17.02;;;0.00;99.90;;;;;;5011924;28;20037;-87
2021/12/27 08:13:11;;;;;;;33.83;17.23;;;0.50;99.90;;;;;;5028466;28;20168;-89
2021/12/27 08:15:38;;;;;;;36.42;17.98;;;0.10;99.90;;;;;;4974977;28;20677;-88
2021/12/27 08:18:04;;;;;;;28.67;16.52;;;0.10;99.90;;;;;;5011501;28;20695;-88
2021/12/27 08:20:30;;;;;;;28.20;16.70;;;0.70;99.90;;;;;;4996316;28;20034;-88
2021/12/27 08:22:56;;;;;;;29.73;16.75;;;1.40;99.90;;;;;;5003665;28;20045;-88
2021/12/27 08:25:22;;;;;;;34.28;18.02;;;0.20;99.90;;;;;;5011746;28;20131;-88
2021/12/27 08:27:48;;;;;;;32.05;17.42;;;0.60;99.90;;;;;;5011166;28;20041;-88
2021/12/27 08:30:14;;;;;;;32.70;17.40;;;0.20;99.90;;;;;;5010824;28;20037;-88
2021/12/27 08:32:42;;;;;;;31.58;17.15;;;0.20;99.90;;;;;;5026544;28;20039;-88
2021/12/27 08:35:10;;;;;;;33.30;17.50;;;0.20;99.90;;;;;;5026549;28;20048;-88
2021/12/27 08:37:36;;;;;;;32.83;17.92;;;0.20;99.90;;;;;;5009279;28;20041;-88
2021/12/27 08:40:03;;;;;;;33.78;17.23;;;0.20;99.90;;;;;;4994206;28;20033;-87
2021/12/27 08:42:29;;;;;;;32.30;17.73;;;0.20;99.90;;;;;;4986709;28;20034;-87
2021/12/27 08:44:55;;;;;;;35.42;18.48;;;0.30;99.90;;;;;;5026605;28;20040;-88
2021/12/27 08:47:20;;;;;;;35.35;18.95;;;0.30;99.90;;;;;;5009649;28;20037;-87
2021/12/27 08:49:46;;;;;;;36.95;17.77;;;0.30;99.90;;;;;;5010579;28;20033;-87
2021/12/27 08:52:12;;;;;;;34.53;19.10;;;;;;;;;;5011468;28;20114;-87
2021/12/27 08:54:39;;;;;;;35.13;18.30;;;0.30;99.90;;;;;;5010173;28;20037;-88
2021/12/27 08:57:05;;;;;;;33.88;18.02;;;;;;;;;;5027268;28;20052;-88
2021/12/27 08:59:32;;;;;;;35.58;17.98;;;0.30;99.90;;;;;;5025829;28;20622;-89
2021/12/27 09:01:58;;;;;;;35.20;18.67;;;0.30;99.90;;;;;;4993198;28;20042;-87
2021/12/27 09:04:24;;;;;;;39.28;19.25;;;0.40;99.90;;;;;;5011427;28;20117;-89
2021/12/27 09:06:50;;;;;;;34.35;17.55;;;1.90;99.90;;;;;;5027661;28;20124;-89
2021/12/27 09:09:16;;;;;;;39.88;19.00;;;0.40;99.90;;;;;;4994787;28;20041;-92
2021/12/27 09:11:43;;;;;;;36.40;19.25;;;0.40;99.90;;;;;;5011022;28;20076;-86
2021/12/27 09:14:10;;;;;;;36.70;19.20;;;1.10;99.90;;;;;;5024872;28;20045;-87
2021/12/27 09:16:36;;;;;;;39.00;18.45;;;0.90;99.90;;;;;;5012243;28;20549;-88
2021/12/27 09:19:01;;;;;;;35.50;18.67;;;2.30;99.90;;;;;;5006975;28;20122;-91
2021/12/27 09:21:28;;;;;;;36.42;18.23;;;;;;;;;;5014553;28;20057;-91
2021/12/27 09:23:54;;;;;;;37.90;18.52;;;0.50;99.90;;;;;;5031648;28;20069;-92
2021/12/27 09:26:19;;;;;;;37.17;18.67;;;0.50;99.90;;;;;;4995432;28;20076;-91
2021/12/27 09:28:45;;;;;;;37.67;18.27;;;0.60;99.90;;;;;;5014466;28;20121;-90
2021/12/27 09:31:11;;;;;;;35.83;17.00;;;0.50;99.90;;;;;;4979351;28;20043;-91
2021/12/27 09:33:37;;;;;;;40.28;18.95;;;0.60;99.90;;;;;;4996022;28;20457;-91
2021/12/27 09:36:03;;;;;;;38.78;18.75;;;0.60;99.90;;;;;;4987198;28;20037;-93
2021/12/27 09:38:28;;;;;;;39.10;18.08;;;0.60;99.90;;;;;;5015504;28;20037;-92
2021/12/27 09:40:55;;;;;;;40.92;19.08;;;2.10;99.90;;;;;;4990096;28;20084;-92
2021/12/27 09:43:21;;;;;;;43.58;19.88;;;0.70;99.90;;;;;;5012692;28;20061;-91
2021/12/27 09:45:46;;;;;;;42.30;19.65;;;0.70;99.90;;;;;;5015422;28;20517;-92
2021/12/27 09:48:13;;;;;;;41.22;19.08;;;1.50;99.90;;;;;;5015657;28;20418;-91
2021/12/27 09:50:54;;;;;;;48.05;19.48;;;0.70;99.90;;;;;;5031712;28;20045;-91
2021/12/27 09:53:20;;;;;;;40.08;19.58;;;0.70;99.90;;;;;;5014994;28;20064;-91
2021/12/27 09:55:46;;;;;;;43.78;19.08;;;1.60;99.90;;;;;;5016191;28;20049;-88
2021/12/27 09:58:12;;;;;;;42.58;19.55;;;0.80;99.90;;;;;;4996913;28;20127;-86
2021/12/27 10:00:40;;;;;;;43.15;19.77;;;2.00;99.90;;;;;;5032043;28;20048;-93
2021/12/27 10:03:09;;;;;;;45.72;20.77;;;1.90;99.90;;;;;;5017069;28;20033;-90
2021/12/27 10:05:35;;;;;;;41.05;19.17;;;0.80;99.90;;;;;;5002228;28;20033;-91
2021/12/27 10:08:01;;;;;;;41.28;19.05;;;1.30;99.90;;;;;;5001711;28;20043;-92
2021/12/27 10:10:29;;;;;;;40.05;19.17;;;0.80;99.90;;;;;;5019124;28;20041;-91
2021/12/27 10:12:55;;;;;;;48.15;19.90;;;0.80;99.90;;;;;;5023622;28;20222;-92
2021/12/27 10:15:31;;;;;;;44.85;21.17;;;2.10;99.90;;;;;;5028288;28;20136;-91
2021/12/27 10:17:56;;;;;;;46.28;21.38;;;0.90;99.90;;;;;;5022207;28;20064;-92
2021/12/27 10:20:28;;;;;;;56.13;21.90;;;0.80;99.90;;;;;;5034746;28;20052;-92
2021/12/27 10:22:56;;;;;;;46.58;20.20;;;0.90;99.90;;;;;;5006364;28;20041;-92
2021/12/27 10:25:26;;;;;;;54.53;21.48;;;0.90;99.90;;;;;;5022137;28;20041;-92
2021/12/27 10:27:58;;;;;;;48.72;21.40;;;0.90;99.90;;;;;;5022208;28;20044;-93
2021/12/27 10:30:32;;;;;;;40.67;19.85;;;0.90;99.90;;;;;;5006877;28;20036;-93
2021/12/27 10:33:04;;;;;;;41.45;18.83;;;1.00;99.90;;;;;;5022001;28;20052;-92
2021/12/27 10:36:02;;;;;;;51.13;20.85;;;2.20;99.90;;;;;;5022200;28;20134;-91
2021/12/27 10:38:36;;;;;;;46.80;19.63;;;1.00;99.90;;;;;;4996302;28;20514;-93
2021/12/27 10:41:10;;;;;;;53.00;22.10;;;1.00;99.90;;;;;;5038811;28;20052;-92
2021/12/27 10:43:46;;;;;;;46.17;19.98;;;1.10;99.90;;;;;;5019577;28;20048;-92
2021/12/27 10:46:14;;;;;;;50.22;21.35;;;1.10;99.90;;;;;;5005598;28;20088;-93
2021/12/27 10:48:46;;;;;;;47.15;20.73;;;2.10;99.90;;;;;;5022260;28;20037;-93
2021/12/27 10:51:13;;;;;;;49.60;21.08;;;2.60;99.90;;;;;;5022186;28;20040;-92
2021/12/27 10:53:48;;;;;;;45.30;20.27;;;1.10;99.90;;;;;;5042535;28;20482;-92
2021/12/27 10:56:15;;;;;;;55.40;23.15;;;2.20;99.90;;;;;;5021591;28;20048;-93
2021/12/27 10:58:57;;;;;;;56.33;22.27;;;2.40;99.90;;;;;;5038342;28;20041;-91
2021/12/27 11:01:26;;;;;;;44.20;20.00;;;1.30;99.90;;;;;;5012846;28;20116;-91
2021/12/27 11:04:00;;;;;;;52.42;22.58;;;2.70;99.90;;;;;;5021185;28;20486;-92
2021/12/27 11:06:30;;;;;;;50.97;21.20;;;1.30;99.90;;;;;;5037273;28;20044;-92
2021/12/27 11:08:58;;;;;;;52.15;19.98;;;1.40;99.90;;;;;;5026962;28;20033;-92
2021/12/27 11:11:25;;;;;;;53.47;22.80;;;1.40;99.90;;;;;;5027937;28;20490;-92
2021/12/27 11:13:54;;;;;;;54.80;21.40;;;1.40;99.90;;;;;;5008921;28;20493;-92
2021/12/27 11:16:20;;;;;;;51.65;22.38;;;1.40;99.90;;;;;;5012353;28;20055;-92
2021/12/27 11:18:46;;;;;;;54.38;22.13;;;1.40;99.90;;;;;;5018421;28;20046;-92
2021/12/27 11:21:16;;;;;;;55.28;22.45;;;1.50;99.90;;;;;;5022610;28;20037;-92
2021/12/27 11:23:42;;;;;;;51.65;22.02;;;1.50;99.90;;;;;;5022041;28;20037;-90
2021/12/27 11:26:14;;;;;;;55.60;23.08;;;2.80;99.90;;;;;;5002585;28;20041;-91
2021/12/27 11:28:42;;;;;;;50.67;21.92;;;1.30;99.90;;;;;;5021011;28;20405;-91
2021/12/27 11:31:13;;;;;;;53.22;21.27;;;3.20;99.90;;;;;;5017548;28;20041;-92
2021/12/27 11:33:56;;;;;;;51.28;22.30;;;1.50;99.90;;;;;;5017993;28;20044;-91
2021/12/27 11:36:23;;;;;;;53.88;22.45;;;1.50;99.90;;;;;;4999152;28;20049;-92
2021/12/27 11:38:49;;;;;;;53.47;20.75;;;1.80;99.90;;;;;;5024095;28;20036;-91
2021/12/27 11:41:24;;;;;;;54.20;22.65;;;1.50;99.90;;;;;;5019343;28;20174;-92
2021/12/27 11:43:56;;;;;;;59.72;22.67;;;1.50;99.90;;;;;;5037720;28;20032;-92
2021/12/27 11:46:23;;;;;;;57.17;22.05;;;1.50;99.90;;;;;;5017668;28;20037;-91
2021/12/27 11:48:52;;;;;;;61.10;24.08;;;1.50;99.90;;;;;;5031615;28;20139;-92
2021/12/27 11:51:32;;;;;;;54.58;21.75;;;1.50;99.90;;;;;;5048922;28;20120;-91
2021/12/27 11:53:59;;;;;;;55.38;22.55;;;1.50;99.90;;;;;;5010317;28;20037;-91
2021/12/27 11:56:37;;;;;;;71.82;24.38;;;1.50;99.90;;;;;;5033552;28;20047;-90
2021/12/27 11:59:23;;;;;;;74.13;25.40;;;1.50;99.90;;;;;;5009540;28;20037;-91
2021/12/27 12:01:50;;;;;;;71.60;24.38;;;1.50;99.90;;;;;;5019906;28;20111;-91
2021/12/27 12:04:40;;;;;;;56.25;22.58;;;1.50;99.90;;;;;;5020095;28;20493;-91
2021/12/27 12:07:08;;;;;;;60.42;23.52;;;1.50;99.90;;;;;;5009606;28;20040;-91
2021/12/27 12:09:46;;;;;;;63.53;23.27;;;2.60;99.90;;;;;;5032342;28;20490;-92
2021/12/27 12:12:14;;;;;;;57.88;23.35;;;1.60;99.90;;;;;;5036847;28;20122;-91
2021/12/27 12:14:41;;;;;;;63.90;22.08;;;1.50;99.90;;;;;;5001464;28;20065;-91
2021/12/27 12:17:15;;;;;;;65.22;24.83;;;1.60;99.90;;;;;;5005501;28;20049;-91
2021/12/27 12:19:46;;;;;;;61.97;24.27;;;1.60;99.90;;;;;;5009846;28;20054;-91
2021/12/27 12:22:38;;;;;;;57.65;22.48;;;1.60;99.90;;;;;;4996175;28;20042;-91
2021/12/27 12:25:05;;;;;;;73.32;25.45;;;1.60;99.90;;;;;;4997339;28;20038;-91
2021/12/27 12:27:31;;;;;;;67.68;24.15;;;1.60;99.90;;;;;;4998304;28;20494;-91
2021/12/27 12:29:57;;;;;;;80.40;24.90;;;;;;;;;;5000550;28;20041;-91
2021/12/27 12:32:23;;;;;;;71.47;25.17;;;1.70;99.90;;;;;;5026802;28;20041;-91
2021/12/27 12:34:48;;;;;;;79.80;25.45;;;2.50;99.90;;;;;;4967591;28;20383;-91
2021/12/27 12:37:16;;;;;;;91.25;26.52;;;2.90;99.90;;;;;;4980761;28;20050;-92